Najaf, Iraq
Current Conditions -  °F | °C
As of 6:00 AM on Saturday 29 Nov 2014 (Local Time) from ORNI Reporting Station
Clear Clear  
Wind Chill: 10°   Ceiling: Unl
Heat Index: 10°   Visibility: 4mi
Dew Point:   Wind: 8mph
Humidity: 94%   Direction: 310°NW
Pressure: 30.21"   Gusts: NA
Location:  31.98°N, 44.32°E
Report Text: ORNI 290300Z 31007KT 7000 NSC 10/09 Q1023 NOSIG
Loading
Personal Weather Stations






























Interactive Weather Map New forecast layout! Learn more

10-Day Weather Forecast

Advertisements
Track Severe Weather on mobile